createdAt,value
2022-08-21T00:02:23.496Z,3.10
2022-08-21T00:04:56.958Z,2.20
2022-08-21T00:07:26.070Z,2.35
2022-08-21T00:09:54.343Z,1.92
2022-08-21T00:12:25.086Z,2.55
2022-08-21T00:14:57.210Z,2.42
2022-08-21T00:17:26.284Z,2.22
2022-08-21T00:19:55.947Z,2.75
2022-08-21T00:22:24.029Z,2.03
2022-08-21T00:24:52.604Z,1.80
2022-08-21T00:27:21.380Z,1.90
2022-08-21T00:29:49.405Z,2.08
2022-08-21T00:32:21.479Z,2.00
2022-08-21T00:34:49.521Z,1.90
2022-08-21T00:37:19.349Z,1.98
2022-08-21T00:39:48.438Z,2.05
2022-08-21T00:42:16.942Z,2.25
2022-08-21T00:44:45.078Z,1.65
2022-08-21T00:47:13.426Z,2.00
2022-08-21T00:49:41.835Z,1.70
2022-08-21T00:52:13.384Z,1.70
2022-08-21T00:54:44.124Z,1.90
2022-08-21T00:57:19.465Z,1.67
2022-08-21T00:59:50.262Z,1.92
2022-08-21T01:02:18.856Z,1.63
2022-08-21T01:04:46.865Z,1.67
2022-08-21T01:07:15.577Z,1.67
2022-08-21T01:09:46.381Z,1.50
2022-08-21T01:12:15.063Z,1.30
2022-08-21T01:14:44.019Z,1.58
2022-08-21T01:17:12.847Z,1.52
2022-08-21T01:19:41.479Z,1.58
2022-08-21T01:22:11.031Z,1.80
2022-08-21T01:24:39.245Z,1.63
2022-08-21T01:27:07.433Z,1.80
2022-08-21T01:29:38.161Z,1.67
2022-08-21T01:32:08.654Z,1.42
2022-08-21T01:34:38.581Z,1.77
2022-08-21T01:37:07.070Z,1.65
2022-08-21T01:39:36.992Z,1.63
2022-08-21T01:42:05.444Z,1.55
2022-08-21T01:44:33.629Z,2.30
2022-08-21T01:47:02.947Z,1.55
2022-08-21T01:49:31.522Z,1.58
2022-08-21T01:52:00.081Z,1.27
2022-08-21T01:54:28.469Z,1.80
2022-08-21T01:56:59.445Z,1.40
2022-08-21T01:59:27.972Z,1.73
2022-08-21T02:01:56.411Z,1.70
2022-08-21T02:04:25.363Z,1.27
2022-08-21T02:06:53.175Z,1.80
2022-08-21T02:09:22.643Z,1.88
2022-08-21T02:14:36.185Z,1.67
2022-08-21T02:17:09.501Z,1.17
2022-08-21T02:19:40.217Z,1.90
2022-08-21T02:22:09.835Z,1.58
2022-08-21T02:24:38.478Z,1.33
2022-08-21T02:27:26.864Z,1.42
2022-08-21T02:29:58.155Z,1.42
2022-08-21T02:32:27.029Z,1.75
2022-08-21T02:34:55.675Z,1.67
2022-08-21T02:37:24.944Z,1.90
2022-08-21T02:39:53.502Z,1.58
2022-08-21T02:42:22.532Z,1.38
2022-08-21T02:44:50.609Z,2.03
2022-08-21T02:47:21.534Z,1.55
2022-08-21T02:49:50.164Z,1.35
2022-08-21T02:52:18.443Z,1.50
2022-08-21T02:54:46.956Z,1.58
2022-08-21T02:57:15.650Z,1.60
2022-08-21T02:59:43.831Z,1.42
2022-08-21T03:02:12.276Z,1.63
2022-08-21T03:04:46.436Z,1.45
2022-08-21T03:07:16.365Z,1.50
2022-08-21T03:09:55.287Z,1.33
2022-08-21T03:12:23.759Z,1.65
2022-08-21T03:14:52.151Z,1.42
2022-08-21T03:17:20.666Z,1.70
2022-08-21T03:19:59.765Z,1.30
2022-08-21T03:22:30.863Z,1.75
2022-08-21T03:24:59.899Z,1.17
2022-08-21T03:27:29.842Z,1.60
2022-08-21T03:29:58.612Z,1.70
2022-08-21T03:32:26.741Z,1.38
2022-08-21T03:34:54.752Z,1.50
2022-08-21T03:37:25.611Z,1.60
2022-08-21T03:39:54.127Z,1.45
2022-08-21T03:42:22.574Z,1.60
2022-08-21T03:44:50.684Z,1.30
2022-08-21T03:47:18.944Z,1.45
2022-08-21T03:49:47.113Z,1.15
2022-08-21T03:52:16.326Z,1.13
2022-08-21T03:54:45.752Z,1.25
2022-08-21T03:57:13.719Z,1.27
2022-08-21T03:59:41.652Z,1.55
2022-08-21T04:02:09.786Z,1.52
2022-08-21T04:04:39.053Z,1.20
2022-08-21T04:07:07.215Z,1.60
2022-08-21T04:09:35.428Z,1.15
2022-08-21T04:12:06.706Z,1.38
2022-08-21T04:14:34.931Z,1.48
2022-08-21T04:17:03.142Z,1.27
2022-08-21T04:19:31.226Z,1.40
2022-08-21T04:22:00.274Z,1.20
2022-08-21T04:24:29.983Z,1.25
2022-08-21T04:26:58.134Z,1.50
2022-08-21T04:29:27.682Z,1.40
2022-08-21T04:31:55.587Z,1.80
2022-08-21T04:34:23.611Z,1.10
2022-08-21T04:36:51.660Z,1.80
2022-08-21T04:39:20.239Z,1.58
2022-08-21T04:41:48.863Z,1.40
2022-08-21T04:44:17.067Z,1.27
2022-08-21T04:46:46.843Z,1.10
2022-08-21T04:49:15.224Z,1.10
2022-08-21T04:51:43.431Z,1.73
2022-08-21T04:54:13.283Z,1.10
2022-08-21T04:56:44.073Z,1.20
2022-08-21T04:59:14.890Z,1.55
2022-08-21T05:01:43.180Z,1.08
2022-08-21T05:04:14.221Z,1.38
2022-08-21T05:06:44.032Z,1.30
2022-08-21T05:09:12.125Z,1.30
2022-08-21T05:11:41.540Z,1.58
2022-08-21T05:14:11.571Z,1.20
2022-08-21T05:16:42.854Z,1.25
2022-08-21T05:19:12.694Z,1.27
2022-08-21T05:21:42.320Z,1.60
2022-08-21T05:24:10.497Z,1.30
2022-08-21T05:26:45.366Z,1.13
2022-08-21T05:29:15.454Z,1.38
2022-08-21T05:31:44.848Z,0.90
2022-08-21T05:34:16.254Z,1.40
2022-08-21T05:36:45.428Z,1.35
2022-08-21T05:39:13.470Z,1.00
2022-08-21T05:41:41.607Z,1.17
2022-08-21T05:44:11.245Z,1.35
2022-08-21T05:46:39.713Z,1.13
2022-08-21T05:49:09.100Z,1.30
2022-08-21T05:51:38.881Z,1.30
2022-08-21T05:54:07.257Z,1.50
2022-08-21T05:56:36.975Z,1.45
2022-08-21T05:59:08.599Z,1.50
2022-08-21T06:01:37.393Z,1.52
2022-08-21T06:04:06.066Z,1.30
2022-08-21T06:06:34.017Z,1.15
2022-08-21T06:09:03.661Z,1.48
2022-08-21T06:11:33.672Z,1.40
2022-08-21T06:14:03.156Z,1.20
2022-08-21T06:16:31.508Z,1.20
2022-08-21T06:19:02.847Z,1.33
2022-08-21T06:21:31.259Z,1.20
2022-08-21T06:23:59.306Z,1.23
2022-08-21T06:26:30.192Z,1.60
2022-08-21T06:28:58.164Z,0.90
2022-08-21T06:31:27.721Z,1.33
2022-08-21T06:33:55.704Z,0.93
2022-08-21T06:36:23.688Z,1.50
2022-08-21T06:38:52.039Z,1.00
2022-08-21T06:41:23.753Z,0.55
2022-08-21T06:43:56.807Z,1.27
2022-08-21T06:46:25.284Z,1.33
2022-08-21T06:48:53.725Z,1.20
2022-08-21T06:51:24.181Z,1.30
2022-08-21T06:53:52.474Z,1.30
2022-08-21T06:56:20.745Z,1.48
2022-08-21T06:58:49.166Z,1.33
2022-08-21T07:01:18.356Z,1.27
2022-08-21T07:03:46.412Z,1.55
2022-08-21T07:06:14.602Z,1.75
2022-08-21T07:08:42.694Z,1.42
2022-08-21T07:11:13.208Z,1.50
2022-08-21T07:13:41.378Z,0.95
2022-08-21T07:16:09.387Z,0.98
2022-08-21T07:18:39.600Z,1.30
2022-08-21T07:21:08.419Z,1.33
2022-08-21T07:23:40.061Z,1.40
2022-08-21T07:26:08.338Z,1.42
2022-08-21T07:28:36.592Z,1.55
2022-08-21T07:31:05.038Z,1.35
2022-08-21T07:33:34.256Z,0.88
2022-08-21T07:36:04.152Z,1.13
2022-08-21T07:38:32.414Z,1.10
2022-08-21T07:41:02.340Z,1.60
2022-08-21T07:43:30.871Z,1.33
2022-08-21T07:46:00.962Z,1.10
2022-08-21T07:48:29.564Z,1.73
2022-08-21T07:50:57.730Z,0.93
2022-08-21T07:53:27.497Z,0.90
2022-08-21T07:55:55.433Z,1.45
2022-08-21T07:58:23.353Z,1.85
2022-08-21T08:00:51.758Z,1.25
2022-08-21T08:03:28.596Z,0.82
2022-08-21T08:05:57.873Z,1.73
2022-08-21T08:08:28.073Z,1.52
2022-08-21T08:10:58.602Z,1.65
2022-08-21T08:13:27.444Z,1.42
2022-08-21T08:15:56.327Z,1.50
2022-08-21T08:18:24.594Z,1.20
2022-08-21T08:20:55.969Z,1.60
2022-08-21T08:23:24.336Z,1.23
2022-08-21T08:25:54.599Z,0.98
2022-08-21T08:28:22.949Z,1.08
2022-08-21T08:30:51.660Z,0.82
2022-08-21T08:33:19.666Z,1.80
2022-08-21T08:35:49.192Z,1.10
2022-08-21T08:38:21.328Z,1.17
2022-08-21T08:40:53.681Z,1.40
2022-08-21T08:43:23.573Z,1.35
2022-08-21T08:45:53.286Z,1.38
2022-08-21T08:48:32.509Z,1.67
2022-08-21T08:51:02.280Z,0.75
2022-08-21T08:53:33.972Z,1.10
2022-08-21T08:56:03.060Z,1.38
2022-08-21T08:58:33.838Z,1.50
2022-08-21T09:01:03.944Z,0.93
2022-08-21T09:03:38.546Z,1.38
2022-08-21T09:06:10.515Z,1.00
2022-08-21T09:08:50.501Z,1.63
2022-08-21T09:11:23.778Z,1.48
2022-08-21T09:13:58.449Z,1.30
2022-08-21T09:16:31.613Z,1.13
2022-08-21T09:19:04.974Z,1.50
2022-08-21T09:21:39.224Z,0.70
2022-08-21T09:24:16.784Z,1.27
2022-08-21T09:26:47.942Z,1.23
2022-08-21T09:29:19.121Z,1.95
2022-08-21T09:31:47.036Z,1.45
2022-08-21T09:34:15.796Z,1.65
2022-08-21T09:36:46.656Z,1.50
2022-08-21T09:39:16.466Z,1.52
2022-08-21T09:41:44.629Z,1.27
2022-08-21T09:44:12.879Z,1.50
2022-08-21T09:46:52.573Z,2.08
2022-08-21T09:49:29.450Z,1.00
2022-08-21T09:51:57.725Z,1.25
2022-08-21T09:54:28.674Z,0.93
2022-08-21T09:57:15.961Z,1.10
2022-08-21T09:59:44.393Z,1.52
2022-08-21T10:02:30.421Z,1.58
2022-08-21T10:05:02.448Z,1.05
2022-08-21T10:07:33.649Z,1.42
2022-08-21T10:10:07.809Z,1.30
2022-08-21T10:12:39.989Z,1.38
2022-08-21T10:15:13.770Z,1.27
2022-08-21T10:17:47.688Z,1.65
2022-08-21T10:20:21.911Z,2.10
2022-08-21T10:22:54.551Z,1.38
2022-08-21T10:25:27.361Z,1.25
2022-08-21T10:28:04.168Z,1.20
2022-08-21T10:30:38.724Z,0.90
2022-08-21T10:33:14.924Z,1.25
2022-08-21T10:35:46.310Z,1.30
2022-08-21T10:38:50.531Z,1.60
2022-08-21T10:41:22.773Z,1.60
2022-08-21T10:43:53.992Z,1.02
2022-08-21T10:46:29.769Z,1.20
2022-08-21T10:49:00.592Z,1.48
2022-08-21T10:51:35.523Z,1.52
2022-08-21T10:54:08.200Z,0.98
2022-08-21T10:56:38.105Z,1.70
2022-08-21T10:59:18.403Z,1.40
2022-08-21T11:01:49.785Z,1.20
2022-08-21T11:04:24.267Z,1.30
2022-08-21T11:07:02.888Z,1.48
2022-08-21T11:09:34.692Z,1.17
2022-08-21T11:12:11.036Z,1.50
2022-08-21T11:14:49.970Z,0.63
2022-08-21T11:17:22.132Z,0.82
2022-08-21T11:19:52.364Z,1.70
2022-08-21T11:22:26.538Z,1.05
2022-08-21T11:24:57.080Z,1.60
2022-08-21T11:27:27.492Z,1.77
2022-08-21T11:29:57.164Z,2.80
2022-08-21T11:32:44.730Z,1.98
2022-08-21T11:35:16.064Z,1.52
2022-08-21T11:37:51.110Z,0.85
2022-08-21T11:40:24.656Z,2.17
2022-08-21T11:42:55.726Z,1.55
2022-08-21T11:45:28.278Z,1.33
2022-08-21T11:48:00.734Z,1.30
2022-08-21T11:50:35.522Z,1.33
2022-08-21T11:53:07.575Z,1.90
2022-08-21T11:55:39.045Z,1.15
2022-08-21T11:58:09.215Z,2.05
2022-08-21T12:00:38.904Z,2.20
2022-08-21T12:03:11.096Z,1.33
2022-08-21T12:05:41.106Z,0.63
2022-08-21T12:08:13.095Z,0.70
2022-08-21T12:10:42.717Z,1.92
2022-08-21T12:13:12.584Z,0.77
2022-08-21T12:15:41.800Z,1.42
2022-08-21T12:18:23.872Z,2.85
2022-08-21T12:21:02.840Z,1.23
2022-08-21T12:23:34.425Z,1.77
2022-08-21T12:26:06.887Z,1.42
2022-08-21T12:28:35.471Z,1.60
2022-08-21T12:31:03.548Z,1.58
2022-08-21T12:33:33.652Z,1.13
2022-08-21T12:36:07.735Z,1.40
2022-08-21T12:38:44.605Z,0.32
2022-08-21T12:41:17.885Z,0.68
2022-08-21T12:43:49.696Z,0.30
2022-08-21T12:46:18.430Z,1.38
2022-08-21T12:48:49.462Z,0.40
2022-08-21T12:51:18.788Z,1.23
2022-08-21T12:53:50.805Z,1.35
2022-08-21T12:56:22.073Z,0.75
2022-08-21T12:58:52.473Z,0.32
2022-08-21T13:01:24.017Z,1.33
2022-08-21T13:03:57.256Z,1.17
2022-08-21T13:06:46.278Z,1.00
2022-08-21T13:09:18.037Z,1.42
2022-08-21T13:11:47.629Z,0.65
2022-08-21T13:14:23.091Z,0.90
2022-08-21T13:16:57.022Z,1.33
2022-08-21T13:19:25.295Z,1.70
2022-08-21T13:21:54.933Z,2.08
2022-08-21T13:24:41.679Z,1.27
2022-08-21T13:27:21.501Z,1.17
2022-08-21T13:29:54.353Z,1.73
2022-08-21T13:32:26.295Z,1.77
2022-08-21T13:34:54.516Z,1.50
2022-08-21T13:37:24.469Z,0.90
2022-08-21T13:39:54.723Z,1.30
2022-08-21T13:42:25.889Z,1.95
2022-08-21T13:44:55.019Z,1.60
2022-08-21T13:47:23.135Z,1.42
2022-08-21T13:49:57.071Z,0.73
2022-08-21T13:52:28.354Z,1.25
2022-08-21T13:55:00.708Z,0.75
2022-08-21T13:57:29.833Z,1.42
2022-08-21T14:00:12.859Z,1.45
2022-08-21T14:02:42.216Z,1.30
2022-08-21T14:05:16.815Z,1.42
2022-08-21T14:07:45.703Z,1.40
2022-08-21T14:10:17.646Z,2.03
2022-08-21T14:12:48.376Z,0.73
2022-08-21T14:15:17.320Z,1.30
2022-08-21T14:17:45.789Z,1.38
2022-08-21T14:20:27.224Z,1.85
2022-08-21T14:22:55.548Z,1.77
2022-08-21T14:25:32.711Z,1.08
2022-08-21T14:28:09.671Z,1.75
2022-08-21T14:30:39.640Z,1.75
2022-08-21T14:33:11.918Z,1.70
2022-08-21T14:35:40.344Z,0.98
2022-08-21T14:38:14.265Z,2.00
2022-08-21T14:40:44.107Z,2.08
2022-08-21T14:43:12.255Z,1.70
2022-08-21T14:45:41.759Z,1.70
2022-08-21T14:48:10.050Z,1.70
2022-08-21T14:50:38.351Z,1.30
2022-08-21T14:53:11.064Z,1.60
2022-08-21T14:55:54.056Z,2.03
2022-08-21T14:58:25.538Z,1.98
2022-08-21T15:00:53.743Z,1.33
2022-08-21T15:03:22.682Z,1.58
2022-08-21T15:05:50.944Z,1.65
2022-08-21T15:08:19.087Z,2.03
2022-08-21T15:11:09.996Z,1.58
2022-08-21T15:13:39.919Z,1.20
2022-08-21T15:16:08.155Z,1.40
2022-08-21T15:18:37.398Z,0.30
2022-08-21T15:21:06.072Z,0.45
2022-08-21T15:23:33.964Z,0.63
2022-08-21T15:26:02.169Z,0.65
2022-08-21T15:28:31.799Z,0.43
2022-08-21T15:31:02.261Z,0.40
2022-08-21T15:33:31.296Z,0.52
2022-08-21T15:36:01.448Z,0.50
2022-08-21T15:38:29.561Z,1.10
2022-08-21T15:40:57.957Z,0.88
2022-08-21T15:43:29.714Z,1.08
2022-08-21T15:45:58.673Z,1.25
2022-08-21T15:48:30.109Z,1.30
2022-08-21T15:50:58.203Z,0.90
2022-08-21T15:53:26.276Z,0.75
2022-08-21T15:55:54.856Z,0.93
2022-08-21T15:58:24.380Z,1.20
2022-08-21T16:00:52.815Z,1.17
2022-08-21T16:03:22.900Z,1.10
2022-08-21T16:05:54.012Z,0.98
2022-08-21T16:08:22.262Z,0.70
2022-08-21T16:10:51.149Z,0.90
2022-08-21T16:13:20.859Z,1.00
2022-08-21T16:15:49.008Z,0.70
2022-08-21T16:18:17.289Z,0.88
2022-08-21T16:20:45.328Z,0.75
2022-08-21T16:23:15.124Z,0.85
2022-08-21T16:25:44.373Z,0.90
2022-08-21T16:28:15.366Z,0.85
2022-08-21T16:30:44.832Z,0.90
2022-08-21T16:33:23.905Z,1.00
2022-08-21T16:35:52.613Z,1.05
2022-08-21T16:38:22.860Z,1.00
2022-08-21T16:40:50.952Z,1.27
2022-08-21T16:43:19.869Z,1.02
2022-08-21T16:45:49.089Z,1.10
2022-08-21T16:48:17.077Z,1.10
2022-08-21T16:50:50.442Z,0.82
2022-08-21T16:53:19.090Z,0.75
2022-08-21T16:55:50.546Z,1.05
2022-08-21T16:58:20.760Z,1.23
2022-08-21T17:00:49.604Z,1.13
2022-08-21T17:03:20.193Z,0.90
2022-08-21T17:05:49.785Z,0.90
2022-08-21T17:08:17.905Z,1.10
2022-08-21T17:10:48.825Z,1.20
2022-08-21T17:13:19.127Z,1.20
2022-08-21T17:15:47.479Z,0.98
2022-08-21T17:18:17.330Z,1.05
2022-08-21T17:20:45.377Z,1.23
2022-08-21T17:23:13.402Z,1.00
2022-08-21T17:25:43.314Z,1.10
2022-08-21T17:28:12.897Z,1.08
2022-08-21T17:30:45.976Z,0.90
2022-08-21T17:33:14.936Z,0.88
2022-08-21T17:35:43.263Z,1.00
2022-08-21T17:38:11.731Z,1.05
2022-08-21T17:40:43.340Z,1.00
2022-08-21T17:43:13.694Z,1.30
2022-08-21T17:45:43.597Z,1.20
2022-08-21T17:48:11.714Z,1.27
2022-08-21T17:50:41.361Z,1.10
2022-08-21T17:53:10.040Z,1.10
2022-08-21T17:55:38.272Z,1.10
2022-08-21T17:58:06.358Z,1.20
2022-08-21T18:00:35.460Z,1.08
2022-08-21T18:03:07.612Z,1.30
2022-08-21T18:05:35.888Z,1.15
2022-08-21T18:08:04.305Z,1.00
2022-08-21T18:10:32.417Z,0.90
2022-08-21T18:13:01.470Z,1.00
2022-08-21T18:15:30.033Z,1.05
2022-08-21T18:17:58.283Z,0.88
2022-08-21T18:20:28.237Z,0.98
2022-08-21T18:22:56.418Z,0.90
2022-08-21T18:25:24.621Z,1.10
2022-08-21T18:27:53.079Z,0.93
2022-08-21T18:30:21.936Z,0.60
2022-08-21T18:32:49.847Z,0.80
2022-08-21T18:35:18.556Z,0.80
2022-08-21T18:37:48.565Z,0.65
2022-08-21T18:40:17.372Z,0.63
2022-08-21T18:42:55.233Z,0.82
2022-08-21T18:45:24.524Z,0.90
2022-08-21T18:47:54.635Z,0.90
2022-08-21T18:53:23.975Z,1.00
2022-08-21T18:55:56.982Z,2.55
2022-08-21T18:58:26.286Z,2.22
2022-08-21T19:00:55.798Z,1.85
2022-08-21T19:03:25.530Z,2.10
2022-08-21T19:05:56.751Z,1.60
2022-08-21T19:08:28.861Z,1.70
2022-08-21T19:11:01.881Z,3.35
2022-08-21T19:13:31.037Z,2.30
2022-08-21T19:16:05.049Z,1.95
2022-08-21T19:18:35.412Z,3.38
2022-08-21T19:21:04.273Z,3.47
2022-08-21T19:23:34.913Z,2.85
2022-08-21T19:26:05.216Z,3.17
2022-08-21T19:28:36.398Z,3.17
2022-08-21T19:31:23.598Z,3.75
2022-08-21T19:33:57.688Z,8.27
2022-08-21T19:36:31.719Z,9.30
2022-08-21T19:39:01.682Z,3.50
2022-08-21T19:41:39.114Z,3.47
2022-08-21T19:44:09.673Z,7.88
2022-08-21T19:46:41.377Z,4.47
2022-08-21T19:49:13.536Z,4.57
2022-08-21T19:51:44.353Z,8.20
2022-08-21T19:54:17.429Z,2.90
2022-08-21T19:56:48.325Z,3.50
2022-08-21T19:59:18.790Z,6.85
2022-08-21T20:01:52.920Z,4.32
2022-08-21T20:04:21.527Z,2.72
2022-08-21T20:06:52.495Z,2.72
2022-08-21T20:09:24.259Z,6.97
2022-08-21T20:11:53.407Z,3.58
2022-08-21T20:14:22.641Z,2.47
2022-08-21T20:16:52.632Z,2.00
2022-08-21T20:19:21.141Z,6.10
2022-08-21T20:21:49.706Z,9.25
2022-08-21T20:24:18.041Z,7.45
2022-08-21T20:26:50.022Z,6.38
2022-08-21T20:29:24.023Z,3.15
2022-08-21T20:31:58.293Z,5.13
2022-08-21T20:34:28.287Z,4.05
2022-08-21T20:36:56.702Z,3.50
2022-08-21T20:39:27.623Z,2.72
2022-08-21T20:41:57.896Z,2.58
2022-08-21T20:44:29.063Z,2.50
2022-08-21T20:46:57.859Z,2.38
2022-08-21T20:49:29.033Z,2.70
2022-08-21T20:51:58.499Z,2.10
2022-08-21T20:54:29.922Z,2.20
2022-08-21T20:57:01.260Z,1.95
2022-08-21T20:59:40.057Z,2.15
2022-08-21T21:02:19.611Z,2.30
2022-08-21T21:04:52.970Z,2.35
2022-08-21T21:07:28.118Z,2.10
2022-08-21T21:09:57.641Z,1.65
2022-08-21T21:12:30.588Z,2.22
2022-08-21T21:15:01.972Z,2.10
2022-08-21T21:17:36.303Z,2.22
2022-08-21T21:20:11.652Z,2.65
2022-08-21T21:22:43.358Z,2.70
2022-08-21T21:25:14.321Z,2.10
2022-08-21T21:27:48.990Z,2.50
2022-08-21T21:30:24.562Z,1.98
2022-08-21T21:32:53.899Z,1.77
2022-08-21T21:35:33.046Z,1.95
2022-08-21T21:38:16.029Z,1.77
2022-08-21T21:40:49.891Z,2.10
2022-08-21T21:43:23.355Z,1.90
2022-08-21T21:46:02.359Z,2.10
2022-08-21T21:48:36.489Z,1.75
2022-08-21T21:51:11.853Z,2.35
2022-08-21T21:53:51.977Z,1.90
2022-08-21T21:56:27.648Z,2.38
2022-08-21T21:59:18.564Z,1.92
2022-08-21T22:01:50.033Z,2.03
2022-08-21T22:04:28.533Z,1.98
2022-08-21T22:07:02.522Z,2.20
2022-08-21T22:09:41.037Z,1.77
2022-08-21T22:12:15.640Z,2.25
2022-08-21T22:17:37.763Z,1.80
2022-08-21T22:20:13.094Z,1.85
2022-08-21T22:22:43.941Z,1.92
2022-08-21T22:25:19.217Z,1.85
2022-08-21T22:27:50.421Z,1.50
2022-08-21T22:30:37.313Z,1.55
2022-08-21T22:33:20.161Z,2.30
2022-08-21T22:35:51.658Z,2.10
2022-08-21T22:38:22.947Z,1.80
2022-08-21T22:40:52.571Z,2.33
2022-08-21T22:43:22.312Z,2.10
2022-08-21T22:45:53.459Z,2.25
2022-08-21T22:48:24.232Z,2.30
2022-08-21T22:50:57.664Z,1.77
2022-08-21T22:53:28.372Z,1.83
2022-08-21T22:55:58.426Z,1.77
2022-08-21T22:58:29.299Z,2.05
2022-08-21T23:01:02.179Z,1.92
2022-08-21T23:03:35.371Z,2.25
2022-08-21T23:06:12.834Z,1.95
2022-08-21T23:11:37.758Z,2.10
2022-08-21T23:14:06.034Z,2.13
2022-08-21T23:16:47.131Z,2.33
2022-08-21T23:19:23.561Z,1.83
2022-08-21T23:21:56.610Z,2.00
2022-08-21T23:24:46.482Z,2.00
2022-08-21T23:27:21.368Z,2.53
2022-08-21T23:30:07.398Z,1.88
2022-08-21T23:32:52.309Z,2.00
2022-08-21T23:35:45.034Z,2.40
2022-08-21T23:38:21.873Z,1.95
2022-08-21T23:40:52.441Z,2.33
2022-08-21T23:43:27.424Z,2.58
2022-08-21T23:46:09.827Z,2.40
2022-08-21T23:48:44.731Z,2.00
2022-08-21T23:51:16.312Z,2.20
2022-08-21T23:53:56.349Z,2.20
2022-08-21T23:56:33.095Z,2.08
2022-08-21T23:59:08.730Z,2.40
